Grand Rapids, MI (49502)

7:00 PM EDT on May 29, 2015 (GMT -0400)
WXGR.NET | | Change Station
CLOSE
Current Station
Personal Weather Station
Location: Grand Rapids, MI
Elevation: 756 ft
Nearby Weather Stations

Elev 756 ft 42.96 °N, 85.63 °W | Updated 9 seconds ago

Rain
Rain
73.8 °F
Feels Like 74 °F
N
1.1
Wind Variable Wind from East
Gusts 1.1 mph

Today
High -- | Low -- °F
--% Chance of Precip.
Yesterday
High -- | Low -- °F
Precip. -- in
6:08 AM 9:12 PM
Waxing Gibbous, 86% visible
Pressure 29.94 in
Visibility 10.0 miles
Clouds Scattered Clouds 9500 ft
Mostly Cloudy 11000 ft
Mostly Cloudy 23000 ft
Heat Index 74 °F
Dew Point 68 °F
Humidity 82%
Rainfall 0.33 in
Snow Depth Not available.
UV 1 out of 12
Pollen 9.10 out of 12
Air Quality Not available.
Flu Activity Sporadic
METAR KGRR 292253Z 13005KT 10SM SCT095 BKN110 BKN230 23/21 A2995 RMK AO2 SLP137 T02330211

More Conditions Fewer Conditions

Pressure 29.94 in
Visibility 10.0 miles
Clouds Scattered Clouds 9500 ft
Mostly Cloudy 11000 ft
Mostly Cloudy 23000 ft
Heat Index 74 °F
Dew Point 68 °F
Humidity 82%
Rainfall 0.33 in
Snow Depth Not available.
UV 1 out of 12
Pollen 9.10 out of 12
Air Quality Not available.
Flu Activity Sporadic
METAR KGRR 292253Z 13005KT 10SM SCT095 BKN110 BKN230 23/21 A2995 RMK AO2 SLP137 T02330211

More Conditions Fewer Conditions

10-Day Weather Forecast

Almanac

Astronomy

May. 29, 2015 Rise Set
Actual Time
Civil Twilight
Nautical Twilight
Astronomical Twilight
Moon
Length of Visible Light
Length of Day
Tomorrow will be .
, % of the Moon is Illuminated

Today's Extremes

State Highs State Lows

Community

WunderPhotos

Upload Photos

1,825,397 photos uploaded!

WunderBlogs® & News

Nearby

Air Quality

  Air Quality AQ Index Pollutant
Not available.

Snow Depth

Station Depth Elevation

Earthquake Activity

City Distance Mag. Time & Date
Minimum magnitude displayed is 2.5.

Coastal Water Temperatures

Place Temperature

Stations

Nearby Weather Stations

Station Location Temp. Windchill Dew Point Humidity Wind Precip. Elev Updated Type